Anderson, TX (77830)

4:13 AM CST on February 13, 2016 (GMT -0600)
Anderson | | Change Station
CLOSE
Current Station
Personal Weather Station
Location: Anderson, TX
Elevation: 381 ft
Nearby Weather Stations

Elev 381 ft 30.54 °N, 95.97 °W | Updated 13 seconds ago

Partly Cloudy
Partly Cloudy
54.9 °F
Feels Like 54.9 °F
N
0.0
Wind Variable Wind from SSE
Gusts 0.0 mph

Today
High -- | Low -- °F
--% Chance of Precip.
Yesterday
High -- | Low -- °F
Precip. -- in
Pressure 30.29 in
Visibility 10.0 miles
Clouds Clear
Dew Point 20 °F
Humidity 25%
Rainfall 0.00 in
Snow Depth Not available.
7:06 AM 6:10 PM
Waxing Crescent, 29% visible
METAR KCLL 130953Z AUTO 05007KT 10SM CLR 12/06 A3030 RMK AO2 SLP256 T01220056
Pressure 30.29 in
Visibility 10.0 miles
Clouds Clear
Dew Point 20 °F
Humidity 25%
Rainfall 0.00 in
Snow Depth Not available.
7:06 AM 6:10 PM
Waxing Crescent, 29% visible
METAR KCLL 130953Z AUTO 05007KT 10SM CLR 12/06 A3030 RMK AO2 SLP256 T01220056

10-Day Weather Forecast

Almanac

Astronomy

Feb. 13, 2016 Rise Set
Actual Time
Civil Twilight
Nautical Twilight
Astronomical Twilight
Moon
Length of Visible Light
Length of Day
Tomorrow will be .
, % of the Moon is Illuminated

Today's Extremes

State Highs State Lows

Community

WunderPhotos

Upload Photos

1,892,536 photos uploaded!

WunderBlog® & News

Nearby

Air Quality

  Air Quality AQ Index Pollutant
Not available.

Snow Depth

Station Depth Elevation

Earthquake Activity

City Distance Mag. Time & Date
Minimum magnitude displayed is 2.5.

Coastal Water Temperatures

Place Temperature

Stations

Nearby Weather Stations

Station Location Temp. Windchill Dew Point Humidity Wind Precip. Elev Updated Type
                   

Watches & Warnings

There are currently no watches in effect.